sensor_id;sensor_type;location;lat;lon;timestamp;P1;durP1;ratioP1;P2;durP2;ratioP2
46054;SDS011;31788;6.954;-71.872;2022-09-14T00:01:17;2.58;;;1.20;;
46054;SDS011;31788;6.954;-71.872;2022-09-14T00:03:50;3.20;;;1.20;;
46054;SDS011;31788;6.954;-71.872;2022-09-14T00:06:19;2.90;;;1.20;;
46054;SDS011;31788;6.954;-71.872;2022-09-14T00:08:48;3.53;;;2.45;;
46054;SDS011;31788;6.954;-71.872;2022-09-14T00:11:17;5.38;;;2.22;;
46054;SDS011;31788;6.954;-71.872;2022-09-14T00:13:44;2.42;;;1.65;;
46054;SDS011;31788;6.954;-71.872;2022-09-14T00:16:20;2.77;;;1.50;;
46054;SDS011;31788;6.954;-71.872;2022-09-14T00:18:56;4.47;;;2.47;;
46054;SDS011;31788;6.954;-71.872;2022-09-14T00:21:26;3.05;;;1.73;;
46054;SDS011;31788;6.954;-71.872;2022-09-14T00:23:53;5.27;;;2.40;;
46054;SDS011;31788;6.954;-71.872;2022-09-14T00:26:20;4.82;;;2.08;;
46054;SDS011;31788;6.954;-71.872;2022-09-14T00:28:51;3.37;;;1.60;;
46054;SDS011;31788;6.954;-71.872;2022-09-14T00:31:22;3.80;;;1.30;;
46054;SDS011;31788;6.954;-71.872;2022-09-14T00:33:50;2.60;;;1.02;;
46054;SDS011;31788;6.954;-71.872;2022-09-14T00:36:22;3.87;;;1.07;;
46054;SDS011;31788;6.954;-71.872;2022-09-14T00:38:51;2.83;;;1.02;;
46054;SDS011;31788;6.954;-71.872;2022-09-14T00:41:21;2.75;;;1.10;;
46054;SDS011;31788;6.954;-71.872;2022-09-14T00:46:45;2.75;;;1.10;;
46054;SDS011;31788;6.954;-71.872;2022-09-14T00:52:02;2.72;;;0.95;;
46054;SDS011;31788;6.954;-71.872;2022-09-14T00:54:36;1.97;;;0.90;;
46054;SDS011;31788;6.954;-71.872;2022-09-14T00:57:10;3.07;;;0.83;;
46054;SDS011;31788;6.954;-71.872;2022-09-14T00:59:39;2.13;;;1.03;;
46054;SDS011;31788;6.954;-71.872;2022-09-14T01:02:08;3.40;;;0.90;;
46054;SDS011;31788;6.954;-71.872;2022-09-14T01:04:39;3.15;;;0.73;;
46054;SDS011;31788;6.954;-71.872;2022-09-14T01:15:18;1.87;;;0.87;;
46054;SDS011;31788;6.954;-71.872;2022-09-14T01:17:59;1.90;;;0.68;;
46054;SDS011;31788;6.954;-71.872;2022-09-14T01:20:40;2.88;;;0.60;;
46054;SDS011;31788;6.954;-71.872;2022-09-14T01:29:27;4.15;;;0.80;;
46054;SDS011;31788;6.954;-71.872;2022-09-14T01:32:15;10.10;;;1.10;;
46054;SDS011;31788;6.954;-71.872;2022-09-14T01:35:20;7.28;;;1.10;;
46054;SDS011;31788;6.954;-71.872;2022-09-14T01:38:08;5.38;;;0.75;;
46054;SDS011;31788;6.954;-71.872;2022-09-14T01:40:45;9.32;;;1.05;;
46054;SDS011;31788;6.954;-71.872;2022-09-14T01:43:19;8.30;;;1.00;;
46054;SDS011;31788;6.954;-71.872;2022-09-14T01:45:55;4.77;;;0.90;;
46054;SDS011;31788;6.954;-71.872;2022-09-14T01:51:36;2.72;;;0.65;;
46054;SDS011;31788;6.954;-71.872;2022-09-14T01:54:06;3.78;;;0.80;;
46054;SDS011;31788;6.954;-71.872;2022-09-14T01:56:44;4.60;;;0.90;;
46054;SDS011;31788;6.954;-71.872;2022-09-14T01:59:20;3.35;;;1.08;;
46054;SDS011;31788;6.954;-71.872;2022-09-14T02:01:51;5.05;;;0.90;;
46054;SDS011;31788;6.954;-71.872;2022-09-14T02:04:34;4.40;;;1.08;;
46054;SDS011;31788;6.954;-71.872;2022-09-14T02:07:07;2.92;;;0.80;;
46054;SDS011;31788;6.954;-71.872;2022-09-14T02:09:34;3.65;;;0.90;;
46054;SDS011;31788;6.954;-71.872;2022-09-14T02:12:02;5.63;;;0.73;;
46054;SDS011;31788;6.954;-71.872;2022-09-14T02:14:29;1.52;;;0.63;;
46054;SDS011;31788;6.954;-71.872;2022-09-14T02:16:56;1.98;;;0.60;;
46054;SDS011;31788;6.954;-71.872;2022-09-14T02:19:24;4.00;;;0.80;;
46054;SDS011;31788;6.954;-71.872;2022-09-14T02:21:54;4.32;;;0.88;;
46054;SDS011;31788;6.954;-71.872;2022-09-14T02:24:20;2.25;;;0.70;;
46054;SDS011;31788;6.954;-71.872;2022-09-14T02:26:47;2.90;;;0.80;;
46054;SDS011;31788;6.954;-71.872;2022-09-14T02:29:15;2.67;;;0.88;;
46054;SDS011;31788;6.954;-71.872;2022-09-14T02:45:30;2.30;;;0.60;;
46054;SDS011;31788;6.954;-71.872;2022-09-14T02:50:39;3.13;;;0.57;;
46054;SDS011;31788;6.954;-71.872;2022-09-14T02:53:18;1.45;;;0.60;;
46054;SDS011;31788;6.954;-71.872;2022-09-14T02:55:51;3.42;;;0.70;;
46054;SDS011;31788;6.954;-71.872;2022-09-14T02:58:36;4.45;;;0.80;;
46054;SDS011;31788;6.954;-71.872;2022-09-14T03:01:04;1.90;;;0.80;;
46054;SDS011;31788;6.954;-71.872;2022-09-14T03:03:34;1.38;;;0.65;;
46054;SDS011;31788;6.954;-71.872;2022-09-14T03:06:01;3.38;;;0.70;;
46054;SDS011;31788;6.954;-71.872;2022-09-14T03:08:27;3.67;;;0.50;;
46054;SDS011;31788;6.954;-71.872;2022-09-14T03:10:54;3.53;;;0.68;;
46054;SDS011;31788;6.954;-71.872;2022-09-14T03:13:21;4.45;;;0.80;;
46054;SDS011;31788;6.954;-71.872;2022-09-14T03:15:47;2.67;;;0.60;;
46054;SDS011;31788;6.954;-71.872;2022-09-14T03:18:14;3.40;;;0.60;;
46054;SDS011;31788;6.954;-71.872;2022-09-14T03:20:41;2.83;;;0.70;;
46054;SDS011;31788;6.954;-71.872;2022-09-14T03:23:08;1.70;;;0.63;;
46054;SDS011;31788;6.954;-71.872;2022-09-14T03:25:37;2.45;;;0.70;;
46054;SDS011;31788;6.954;-71.872;2022-09-14T03:28:06;2.90;;;0.80;;
46054;SDS011;31788;6.954;-71.872;2022-09-14T03:30:33;6.63;;;0.80;;
46054;SDS011;31788;6.954;-71.872;2022-09-14T03:33:00;2.50;;;0.70;;
46054;SDS011;31788;6.954;-71.872;2022-09-14T03:35:28;3.60;;;0.70;;
46054;SDS011;31788;6.954;-71.872;2022-09-14T03:37:57;3.17;;;0.70;;
46054;SDS011;31788;6.954;-71.872;2022-09-14T03:40:24;2.53;;;0.70;;
46054;SDS011;31788;6.954;-71.872;2022-09-14T03:42:51;1.60;;;0.70;;
46054;SDS011;31788;6.954;-71.872;2022-09-14T03:45:19;3.40;;;0.85;;
46054;SDS011;31788;6.954;-71.872;2022-09-14T03:47:46;1.75;;;0.70;;
46054;SDS011;31788;6.954;-71.872;2022-09-14T03:50:13;2.73;;;0.90;;
46054;SDS011;31788;6.954;-71.872;2022-09-14T03:52:41;7.93;;;2.40;;
46054;SDS011;31788;6.954;-71.872;2022-09-14T03:55:08;7.40;;;3.78;;
46054;SDS011;31788;6.954;-71.872;2022-09-14T03:57:35;6.78;;;4.25;;
46054;SDS011;31788;6.954;-71.872;2022-09-14T04:00:03;8.90;;;3.57;;
46054;SDS011;31788;6.954;-71.872;2022-09-14T04:02:31;5.65;;;2.35;;
46054;SDS011;31788;6.954;-71.872;2022-09-14T04:04:58;7.65;;;1.65;;
46054;SDS011;31788;6.954;-71.872;2022-09-14T04:07:24;4.07;;;1.40;;
46054;SDS011;31788;6.954;-71.872;2022-09-14T04:09:51;3.17;;;1.30;;
46054;SDS011;31788;6.954;-71.872;2022-09-14T04:12:18;6.05;;;1.40;;
46054;SDS011;31788;6.954;-71.872;2022-09-14T04:14:44;3.30;;;1.15;;
46054;SDS011;31788;6.954;-71.872;2022-09-14T04:17:11;5.47;;;1.60;;
46054;SDS011;31788;6.954;-71.872;2022-09-14T04:19:38;2.92;;;1.20;;
46054;SDS011;31788;6.954;-71.872;2022-09-14T04:22:06;1.40;;;0.80;;
46054;SDS011;31788;6.954;-71.872;2022-09-14T04:24:33;3.25;;;1.10;;
46054;SDS011;31788;6.954;-71.872;2022-09-14T04:27:01;2.72;;;0.90;;
46054;SDS011;31788;6.954;-71.872;2022-09-14T04:29:27;2.87;;;0.80;;
46054;SDS011;31788;6.954;-71.872;2022-09-14T04:31:54;2.95;;;0.80;;
46054;SDS011;31788;6.954;-71.872;2022-09-14T04:34:21;4.22;;;0.90;;
46054;SDS011;31788;6.954;-71.872;2022-09-14T04:36:48;3.10;;;0.90;;
46054;SDS011;31788;6.954;-71.872;2022-09-14T04:39:14;2.20;;;0.70;;
46054;SDS011;31788;6.954;-71.872;2022-09-14T04:41:41;2.70;;;0.70;;
46054;SDS011;31788;6.954;-71.872;2022-09-14T04:44:08;3.55;;;0.75;;
46054;SDS011;31788;6.954;-71.872;2022-09-14T04:46:35;3.78;;;0.70;;
46054;SDS011;31788;6.954;-71.872;2022-09-14T04:49:04;2.35;;;0.70;;
46054;SDS011;31788;6.954;-71.872;2022-09-14T04:51:31;1.95;;;0.68;;
46054;SDS011;31788;6.954;-71.872;2022-09-14T04:54:00;3.30;;;0.65;;
46054;SDS011;31788;6.954;-71.872;2022-09-14T04:56:29;2.47;;;0.90;;
46054;SDS011;31788;6.954;-71.872;2022-09-14T04:58:58;3.25;;;0.80;;
46054;SDS011;31788;6.954;-71.872;2022-09-14T05:01:27;2.33;;;0.60;;
46054;SDS011;31788;6.954;-71.872;2022-09-14T05:03:56;1.98;;;0.70;;
46054;SDS011;31788;6.954;-71.872;2022-09-14T05:06:24;3.92;;;0.70;;
46054;SDS011;31788;6.954;-71.872;2022-09-14T05:08:53;3.78;;;0.80;;
46054;SDS011;31788;6.954;-71.872;2022-09-14T05:11:21;2.90;;;0.70;;
46054;SDS011;31788;6.954;-71.872;2022-09-14T05:13:49;5.20;;;0.90;;
46054;SDS011;31788;6.954;-71.872;2022-09-14T05:16:20;3.80;;;0.80;;
46054;SDS011;31788;6.954;-71.872;2022-09-14T05:18:52;2.38;;;0.60;;
46054;SDS011;31788;6.954;-71.872;2022-09-14T05:21:20;4.10;;;0.70;;
46054;SDS011;31788;6.954;-71.872;2022-09-14T05:23:58;3.03;;;0.80;;
46054;SDS011;31788;6.954;-71.872;2022-09-14T05:26:27;2.13;;;0.80;;
46054;SDS011;31788;6.954;-71.872;2022-09-14T05:28:55;3.65;;;0.77;;
46054;SDS011;31788;6.954;-71.872;2022-09-14T05:31:22;4.70;;;0.80;;
46054;SDS011;31788;6.954;-71.872;2022-09-14T05:33:50;3.72;;;0.80;;
46054;SDS011;31788;6.954;-71.872;2022-09-14T05:36:17;3.97;;;0.80;;
46054;SDS011;31788;6.954;-71.872;2022-09-14T05:38:44;6.38;;;0.73;;
46054;SDS011;31788;6.954;-71.872;2022-09-14T05:41:11;3.63;;;0.80;;
46054;SDS011;31788;6.954;-71.872;2022-09-14T05:43:39;3.25;;;0.77;;
46054;SDS011;31788;6.954;-71.872;2022-09-14T05:46:08;3.03;;;0.93;;
46054;SDS011;31788;6.954;-71.872;2022-09-14T05:48:37;2.10;;;0.60;;
46054;SDS011;31788;6.954;-71.872;2022-09-14T05:51:05;2.60;;;0.90;;
46054;SDS011;31788;6.954;-71.872;2022-09-14T05:53:46;2.55;;;0.90;;
46054;SDS011;31788;6.954;-71.872;2022-09-14T05:56:14;4.38;;;0.73;;
46054;SDS011;31788;6.954;-71.872;2022-09-14T05:58:42;3.50;;;1.10;;
46054;SDS011;31788;6.954;-71.872;2022-09-14T06:01:12;2.55;;;0.75;;
46054;SDS011;31788;6.954;-71.872;2022-09-14T06:03:40;2.83;;;0.80;;
46054;SDS011;31788;6.954;-71.872;2022-09-14T06:06:08;3.40;;;0.80;;
46054;SDS011;31788;6.954;-71.872;2022-09-14T06:08:35;3.70;;;0.70;;
46054;SDS011;31788;6.954;-71.872;2022-09-14T06:11:03;3.60;;;0.70;;
46054;SDS011;31788;6.954;-71.872;2022-09-14T06:13:31;2.15;;;0.77;;
46054;SDS011;31788;6.954;-71.872;2022-09-14T06:16:02;2.20;;;0.93;;
46054;SDS011;31788;6.954;-71.872;2022-09-14T06:18:34;3.70;;;0.80;;
46054;SDS011;31788;6.954;-71.872;2022-09-14T06:21:02;2.80;;;0.70;;
46054;SDS011;31788;6.954;-71.872;2022-09-14T06:23:30;4.38;;;0.73;;
46054;SDS011;31788;6.954;-71.872;2022-09-14T06:25:58;3.47;;;0.80;;
46054;SDS011;31788;6.954;-71.872;2022-09-14T06:28:27;6.10;;;1.10;;
46054;SDS011;31788;6.954;-71.872;2022-09-14T06:30:54;2.30;;;0.90;;
46054;SDS011;31788;6.954;-71.872;2022-09-14T06:33:22;3.47;;;0.80;;
46054;SDS011;31788;6.954;-71.872;2022-09-14T06:36:02;3.50;;;0.70;;
46054;SDS011;31788;6.954;-71.872;2022-09-14T06:38:34;2.63;;;0.90;;
46054;SDS011;31788;6.954;-71.872;2022-09-14T06:41:02;3.75;;;0.68;;
46054;SDS011;31788;6.954;-71.872;2022-09-14T06:43:31;2.42;;;0.60;;
46054;SDS011;31788;6.954;-71.872;2022-09-14T06:46:04;4.22;;;0.70;;
46054;SDS011;31788;6.954;-71.872;2022-09-14T06:48:37;4.63;;;0.70;;
46054;SDS011;31788;6.954;-71.872;2022-09-14T06:51:11;2.30;;;0.80;;
46054;SDS011;31788;6.954;-71.872;2022-09-14T06:53:44;3.97;;;0.75;;
46054;SDS011;31788;6.954;-71.872;2022-09-14T06:56:11;2.65;;;0.65;;
46054;SDS011;31788;6.954;-71.872;2022-09-14T06:58:39;3.20;;;0.80;;
46054;SDS011;31788;6.954;-71.872;2022-09-14T07:01:07;4.20;;;0.80;;
46054;SDS011;31788;6.954;-71.872;2022-09-14T07:03:39;2.75;;;0.80;;
46054;SDS011;31788;6.954;-71.872;2022-09-14T07:06:12;4.00;;;0.70;;
46054;SDS011;31788;6.954;-71.872;2022-09-14T07:08:40;3.15;;;0.80;;
46054;SDS011;31788;6.954;-71.872;2022-09-14T07:11:08;3.40;;;0.80;;
46054;SDS011;31788;6.954;-71.872;2022-09-14T07:13:36;2.92;;;0.80;;
46054;SDS011;31788;6.954;-71.872;2022-09-14T07:16:02;3.00;;;0.80;;
46054;SDS011;31788;6.954;-71.872;2022-09-14T07:18:30;3.08;;;0.90;;
46054;SDS011;31788;6.954;-71.872;2022-09-14T07:21:03;3.42;;;0.70;;
46054;SDS011;31788;6.954;-71.872;2022-09-14T07:23:30;1.55;;;0.60;;
46054;SDS011;31788;6.954;-71.872;2022-09-14T07:26:01;2.60;;;0.70;;
46054;SDS011;31788;6.954;-71.872;2022-09-14T07:28:33;2.28;;;0.80;;
46054;SDS011;31788;6.954;-71.872;2022-09-14T07:31:00;2.85;;;0.70;;
46054;SDS011;31788;6.954;-71.872;2022-09-14T07:33:27;3.55;;;0.75;;
46054;SDS011;31788;6.954;-71.872;2022-09-14T07:36:02;3.53;;;0.65;;
46054;SDS011;31788;6.954;-71.872;2022-09-14T07:38:30;3.50;;;0.70;;
46054;SDS011;31788;6.954;-71.872;2022-09-14T07:40:57;2.03;;;0.85;;
46054;SDS011;31788;6.954;-71.872;2022-09-14T07:43:23;3.65;;;0.68;;
46054;SDS011;31788;6.954;-71.872;2022-09-14T07:45:51;2.15;;;0.55;;
46054;SDS011;31788;6.954;-71.872;2022-09-14T07:48:18;1.60;;;0.50;;
46054;SDS011;31788;6.954;-71.872;2022-09-14T07:50:45;3.00;;;0.70;;
46054;SDS011;31788;6.954;-71.872;2022-09-14T07:53:12;2.92;;;0.70;;
46054;SDS011;31788;6.954;-71.872;2022-09-14T07:55:39;6.63;;;0.98;;
46054;SDS011;31788;6.954;-71.872;2022-09-14T07:58:06;3.85;;;0.80;;
46054;SDS011;31788;6.954;-71.872;2022-09-14T08:00:32;3.10;;;0.88;;
46054;SDS011;31788;6.954;-71.872;2022-09-14T08:03:00;3.47;;;0.77;;
46054;SDS011;31788;6.954;-71.872;2022-09-14T08:05:26;4.32;;;0.70;;
46054;SDS011;31788;6.954;-71.872;2022-09-14T08:07:53;3.33;;;0.70;;
46054;SDS011;31788;6.954;-71.872;2022-09-14T08:10:20;3.33;;;0.63;;
46054;SDS011;31788;6.954;-71.872;2022-09-14T08:12:54;2.60;;;0.70;;
46054;SDS011;31788;6.954;-71.872;2022-09-14T08:15:21;2.40;;;0.60;;
46054;SDS011;31788;6.954;-71.872;2022-09-14T08:17:48;2.85;;;0.68;;
46054;SDS011;31788;6.954;-71.872;2022-09-14T08:20:15;4.80;;;0.70;;
46054;SDS011;31788;6.954;-71.872;2022-09-14T08:22:42;2.95;;;0.75;;
46054;SDS011;31788;6.954;-71.872;2022-09-14T08:25:09;3.30;;;0.90;;
46054;SDS011;31788;6.954;-71.872;2022-09-14T08:27:37;3.78;;;0.90;;
46054;SDS011;31788;6.954;-71.872;2022-09-14T08:30:04;3.58;;;0.82;;
46054;SDS011;31788;6.954;-71.872;2022-09-14T08:32:31;4.30;;;0.90;;
46054;SDS011;31788;6.954;-71.872;2022-09-14T08:34:57;1.58;;;0.63;;
46054;SDS011;31788;6.954;-71.872;2022-09-14T08:37:25;4.28;;;0.90;;
46054;SDS011;31788;6.954;-71.872;2022-09-14T08:39:51;3.00;;;0.98;;
46054;SDS011;31788;6.954;-71.872;2022-09-14T08:42:18;2.13;;;0.80;;
46054;SDS011;31788;6.954;-71.872;2022-09-14T08:44:53;2.00;;;0.80;;
46054;SDS011;31788;6.954;-71.872;2022-09-14T08:47:33;5.20;;;0.65;;
46054;SDS011;31788;6.954;-71.872;2022-09-14T08:50:08;3.80;;;0.75;;
46054;SDS011;31788;6.954;-71.872;2022-09-14T08:52:39;3.10;;;0.80;;
46054;SDS011;31788;6.954;-71.872;2022-09-14T08:55:28;1.98;;;0.70;;
46054;SDS011;31788;6.954;-71.872;2022-09-14T09:12:03;1.80;;;0.73;;
46054;SDS011;31788;6.954;-71.872;2022-09-14T09:14:32;2.87;;;0.73;;
46054;SDS011;31788;6.954;-71.872;2022-09-14T09:17:27;3.00;;;0.85;;
46054;SDS011;31788;6.954;-71.872;2022-09-14T09:22:43;1.45;;;0.80;;
46054;SDS011;31788;6.954;-71.872;2022-09-14T09:25:21;2.78;;;0.80;;
46054;SDS011;31788;6.954;-71.872;2022-09-14T09:28:01;4.00;;;0.83;;
46054;SDS011;31788;6.954;-71.872;2022-09-14T09:30:36;3.63;;;1.00;;
46054;SDS011;31788;6.954;-71.872;2022-09-14T09:33:04;3.42;;;0.90;;
46054;SDS011;31788;6.954;-71.872;2022-09-14T09:35:32;4.90;;;1.00;;
46054;SDS011;31788;6.954;-71.872;2022-09-14T09:37:58;3.45;;;1.10;;
46054;SDS011;31788;6.954;-71.872;2022-09-14T09:40:35;4.13;;;1.10;;
46054;SDS011;31788;6.954;-71.872;2022-09-14T09:43:10;4.30;;;1.10;;
46054;SDS011;31788;6.954;-71.872;2022-09-14T09:51:12;4.13;;;1.17;;
46054;SDS011;31788;6.954;-71.872;2022-09-14T09:53:55;4.88;;;1.10;;
46054;SDS011;31788;6.954;-71.872;2022-09-14T09:56:32;1.77;;;1.00;;
46054;SDS011;31788;6.954;-71.872;2022-09-14T10:01:56;3.83;;;1.27;;
46054;SDS011;31788;6.954;-71.872;2022-09-14T10:05:01;5.93;;;1.20;;
46054;SDS011;31788;6.954;-71.872;2022-09-14T10:10:19;4.65;;;1.00;;
46054;SDS011;31788;6.954;-71.872;2022-09-14T10:13:24;3.60;;;1.20;;
46054;SDS011;31788;6.954;-71.872;2022-09-14T10:16:07;2.60;;;0.88;;
46054;SDS011;31788;6.954;-71.872;2022-09-14T10:18:42;3.40;;;1.20;;
46054;SDS011;31788;6.954;-71.872;2022-09-14T10:21:10;4.25;;;1.00;;
46054;SDS011;31788;6.954;-71.872;2022-09-14T10:23:38;4.00;;;1.10;;
46054;SDS011;31788;6.954;-71.872;2022-09-14T10:28:47;4.93;;;1.10;;
46054;SDS011;31788;6.954;-71.872;2022-09-14T10:33:45;5.78;;;1.55;;
46054;SDS011;31788;6.954;-71.872;2022-09-14T10:38:49;6.70;;;2.10;;
46054;SDS011;31788;6.954;-71.872;2022-09-14T10:52:57;7.50;;;2.90;;
46054;SDS011;31788;6.954;-71.872;2022-09-14T11:07:05;4.55;;;1.60;;
46054;SDS011;31788;6.954;-71.872;2022-09-14T11:09:59;4.80;;;1.60;;
46054;SDS011;31788;6.954;-71.872;2022-09-14T11:16:26;8.00;;;2.20;;
46054;SDS011;31788;6.954;-71.872;2022-09-14T11:21:46;6.25;;;2.80;;
46054;SDS011;31788;6.954;-71.872;2022-09-14T11:24:23;5.90;;;2.38;;
46054;SDS011;31788;6.954;-71.872;2022-09-14T11:29:52;4.93;;;1.50;;
46054;SDS011;31788;6.954;-71.872;2022-09-14T11:32:27;6.30;;;1.70;;
46054;SDS011;31788;6.954;-71.872;2022-09-14T11:40:42;3.47;;;1.80;;
46054;SDS011;31788;6.954;-71.872;2022-09-14T11:43:20;4.50;;;1.90;;
46054;SDS011;31788;6.954;-71.872;2022-09-14T11:46:36;4.25;;;1.80;;
46054;SDS011;31788;6.954;-71.872;2022-09-14T11:52:25;5.93;;;1.70;;
46054;SDS011;31788;6.954;-71.872;2022-09-14T11:54:54;4.80;;;1.65;;
46054;SDS011;31788;6.954;-71.872;2022-09-14T11:57:39;5.38;;;1.65;;
46054;SDS011;31788;6.954;-71.872;2022-09-14T12:05:27;3.22;;;1.33;;
46054;SDS011;31788;6.954;-71.872;2022-09-14T12:07:57;3.90;;;1.30;;
46054;SDS011;31788;6.954;-71.872;2022-09-14T12:10:28;2.38;;;1.50;;
46054;SDS011;31788;6.954;-71.872;2022-09-14T12:25:57;4.75;;;1.80;;
46054;SDS011;31788;6.954;-71.872;2022-09-14T12:36:08;6.23;;;1.90;;
46054;SDS011;31788;6.954;-71.872;2022-09-14T12:46:03;6.10;;;1.80;;
46054;SDS011;31788;6.954;-71.872;2022-09-14T12:51:14;8.20;;;1.85;;
46054;SDS011;31788;6.954;-71.872;2022-09-14T12:53:47;6.07;;;1.65;;
46054;SDS011;31788;6.954;-71.872;2022-09-14T12:56:27;5.68;;;1.70;;
46054;SDS011;31788;6.954;-71.872;2022-09-14T12:59:06;6.35;;;1.83;;
46054;SDS011;31788;6.954;-71.872;2022-09-14T13:04:22;6.50;;;1.75;;
46054;SDS011;31788;6.954;-71.872;2022-09-14T13:07:03;9.65;;;2.00;;
46054;SDS011;31788;6.954;-71.872;2022-09-14T13:09:31;8.75;;;2.00;;
46054;SDS011;31788;6.954;-71.872;2022-09-14T13:12:03;7.95;;;2.10;;
46054;SDS011;31788;6.954;-71.872;2022-09-14T13:14:46;6.43;;;1.80;;
46054;SDS011;31788;6.954;-71.872;2022-09-14T13:17:18;3.30;;;1.77;;
46054;SDS011;31788;6.954;-71.872;2022-09-14T13:19:54;5.95;;;2.00;;
46054;SDS011;31788;6.954;-71.872;2022-09-14T13:22:24;6.63;;;1.90;;
46054;SDS011;31788;6.954;-71.872;2022-09-14T13:24:54;4.50;;;1.70;;
46054;SDS011;31788;6.954;-71.872;2022-09-14T13:27:22;6.40;;;1.60;;
46054;SDS011;31788;6.954;-71.872;2022-09-14T13:32:37;4.65;;;1.90;;
46054;SDS011;31788;6.954;-71.872;2022-09-14T13:35:26;3.60;;;1.60;;
46054;SDS011;31788;6.954;-71.872;2022-09-14T13:38:15;6.32;;;1.70;;
46054;SDS011;31788;6.954;-71.872;2022-09-14T13:40:44;4.63;;;1.90;;
46054;SDS011;31788;6.954;-71.872;2022-09-14T13:43:17;5.13;;;1.90;;
46054;SDS011;31788;6.954;-71.872;2022-09-14T13:45:49;5.72;;;1.60;;
46054;SDS011;31788;6.954;-71.872;2022-09-14T13:48:17;3.67;;;1.55;;
46054;SDS011;31788;6.954;-71.872;2022-09-14T13:50:48;4.32;;;1.60;;
46054;SDS011;31788;6.954;-71.872;2022-09-14T13:53:35;5.15;;;1.45;;
46054;SDS011;31788;6.954;-71.872;2022-09-14T13:56:22;5.60;;;1.80;;
46054;SDS011;31788;6.954;-71.872;2022-09-14T14:04:53;5.38;;;1.75;;
46054;SDS011;31788;6.954;-71.872;2022-09-14T14:07:28;5.32;;;2.03;;
46054;SDS011;31788;6.954;-71.872;2022-09-14T14:09:57;6.97;;;2.40;;
46054;SDS011;31788;6.954;-71.872;2022-09-14T14:14:52;6.38;;;2.00;;
46054;SDS011;31788;6.954;-71.872;2022-09-14T14:19:54;5.40;;;1.57;;
46054;SDS011;31788;6.954;-71.872;2022-09-14T14:22:26;3.80;;;1.80;;
46054;SDS011;31788;6.954;-71.872;2022-09-14T14:25:19;3.45;;;1.83;;
46054;SDS011;31788;6.954;-71.872;2022-09-14T14:28:00;5.20;;;1.70;;
46054;SDS011;31788;6.954;-71.872;2022-09-14T14:30:29;5.82;;;1.70;;
46054;SDS011;31788;6.954;-71.872;2022-09-14T14:32:58;7.55;;;2.00;;
46054;SDS011;31788;6.954;-71.872;2022-09-14T14:35:27;3.50;;;1.65;;
46054;SDS011;31788;6.954;-71.872;2022-09-14T14:37:55;4.23;;;1.67;;
46054;SDS011;31788;6.954;-71.872;2022-09-14T14:40:22;4.32;;;1.65;;
46054;SDS011;31788;6.954;-71.872;2022-09-14T14:42:53;4.90;;;1.77;;
46054;SDS011;31788;6.954;-71.872;2022-09-14T14:45:23;4.65;;;2.20;;
46054;SDS011;31788;6.954;-71.872;2022-09-14T14:47:51;3.60;;;2.20;;
46054;SDS011;31788;6.954;-71.872;2022-09-14T14:50:21;4.67;;;2.23;;
46054;SDS011;31788;6.954;-71.872;2022-09-14T14:52:55;4.55;;;2.60;;
46054;SDS011;31788;6.954;-71.872;2022-09-14T14:55:22;7.15;;;2.60;;
46054;SDS011;31788;6.954;-71.872;2022-09-14T14:57:50;11.82;;;3.22;;
46054;SDS011;31788;6.954;-71.872;2022-09-14T15:00:18;6.87;;;3.00;;
46054;SDS011;31788;6.954;-71.872;2022-09-14T15:02:46;8.93;;;3.08;;
46054;SDS011;31788;6.954;-71.872;2022-09-14T15:05:14;6.47;;;3.33;;
46054;SDS011;31788;6.954;-71.872;2022-09-14T15:07:41;7.95;;;3.03;;
46054;SDS011;31788;6.954;-71.872;2022-09-14T15:10:10;7.32;;;3.08;;
46054;SDS011;31788;6.954;-71.872;2022-09-14T15:12:39;6.63;;;2.83;;
46054;SDS011;31788;6.954;-71.872;2022-09-14T15:15:09;8.10;;;4.10;;
46054;SDS011;31788;6.954;-71.872;2022-09-14T15:17:38;10.60;;;4.50;;
46054;SDS011;31788;6.954;-71.872;2022-09-14T15:20:05;7.20;;;3.20;;
46054;SDS011;31788;6.954;-71.872;2022-09-14T15:22:34;6.13;;;3.03;;
46054;SDS011;31788;6.954;-71.872;2022-09-14T15:25:01;6.78;;;3.10;;
46054;SDS011;31788;6.954;-71.872;2022-09-14T15:27:28;6.30;;;2.78;;
46054;SDS011;31788;6.954;-71.872;2022-09-14T15:29:55;8.60;;;3.10;;
46054;SDS011;31788;6.954;-71.872;2022-09-14T15:32:22;6.80;;;3.15;;
46054;SDS011;31788;6.954;-71.872;2022-09-14T15:34:49;7.03;;;2.58;;
46054;SDS011;31788;6.954;-71.872;2022-09-14T15:37:17;10.13;;;3.15;;
46054;SDS011;31788;6.954;-71.872;2022-09-14T15:39:44;8.10;;;3.10;;
46054;SDS011;31788;6.954;-71.872;2022-09-14T15:42:12;7.30;;;3.13;;
46054;SDS011;31788;6.954;-71.872;2022-09-14T15:44:38;7.80;;;3.10;;
46054;SDS011;31788;6.954;-71.872;2022-09-14T15:47:05;10.13;;;2.95;;
46054;SDS011;31788;6.954;-71.872;2022-09-14T15:49:31;7.60;;;2.92;;
46054;SDS011;31788;6.954;-71.872;2022-09-14T15:51:58;7.25;;;3.10;;
46054;SDS011;31788;6.954;-71.872;2022-09-14T15:54:32;7.38;;;2.90;;
46054;SDS011;31788;6.954;-71.872;2022-09-14T15:57:02;9.68;;;2.63;;
46054;SDS011;31788;6.954;-71.872;2022-09-14T15:59:30;9.15;;;2.30;;
46054;SDS011;31788;6.954;-71.872;2022-09-14T16:01:57;7.53;;;2.50;;
46054;SDS011;31788;6.954;-71.872;2022-09-14T16:04:24;8.70;;;2.87;;
46054;SDS011;31788;6.954;-71.872;2022-09-14T16:06:51;9.75;;;3.97;;
46054;SDS011;31788;6.954;-71.872;2022-09-14T16:09:17;10.10;;;3.65;;
46054;SDS011;31788;6.954;-71.872;2022-09-14T16:11:46;8.43;;;3.67;;
46054;SDS011;31788;6.954;-71.872;2022-09-14T16:14:13;7.55;;;3.13;;
46054;SDS011;31788;6.954;-71.872;2022-09-14T16:16:40;9.80;;;3.70;;
46054;SDS011;31788;6.954;-71.872;2022-09-14T16:19:07;7.72;;;3.22;;
46054;SDS011;31788;6.954;-71.872;2022-09-14T16:21:37;10.18;;;3.40;;
46054;SDS011;31788;6.954;-71.872;2022-09-14T16:24:07;9.23;;;3.05;;
46054;SDS011;31788;6.954;-71.872;2022-09-14T16:26:38;8.20;;;3.10;;
46054;SDS011;31788;6.954;-71.872;2022-09-14T16:29:07;9.10;;;3.28;;
46054;SDS011;31788;6.954;-71.872;2022-09-14T16:31:36;6.60;;;2.90;;
46054;SDS011;31788;6.954;-71.872;2022-09-14T16:34:06;9.13;;;2.95;;
46054;SDS011;31788;6.954;-71.872;2022-09-14T16:36:36;9.90;;;3.00;;
46054;SDS011;31788;6.954;-71.872;2022-09-14T16:39:05;9.13;;;2.67;;
46054;SDS011;31788;6.954;-71.872;2022-09-14T16:41:35;8.60;;;2.83;;
46054;SDS011;31788;6.954;-71.872;2022-09-14T16:44:04;9.00;;;3.13;;
46054;SDS011;31788;6.954;-71.872;2022-09-14T16:46:32;9.77;;;2.85;;
46054;SDS011;31788;6.954;-71.872;2022-09-14T16:48:59;6.45;;;2.58;;
46054;SDS011;31788;6.954;-71.872;2022-09-14T16:51:26;9.23;;;2.70;;
46054;SDS011;31788;6.954;-71.872;2022-09-14T16:53:54;7.47;;;2.83;;
46054;SDS011;31788;6.954;-71.872;2022-09-14T16:56:23;7.47;;;2.97;;
46054;SDS011;31788;6.954;-71.872;2022-09-14T16:58:52;9.63;;;2.60;;
46054;SDS011;31788;6.954;-71.872;2022-09-14T17:03:54;7.97;;;2.65;;
46054;SDS011;31788;6.954;-71.872;2022-09-14T17:06:25;8.55;;;2.53;;
46054;SDS011;31788;6.954;-71.872;2022-09-14T17:08:54;10.87;;;2.70;;
46054;SDS011;31788;6.954;-71.872;2022-09-14T17:11:25;8.68;;;2.40;;
46054;SDS011;31788;6.954;-71.872;2022-09-14T17:13:53;12.45;;;3.10;;
46054;SDS011;31788;6.954;-71.872;2022-09-14T17:16:22;9.23;;;2.42;;
46054;SDS011;31788;6.954;-71.872;2022-09-14T17:18:50;7.75;;;2.22;;
46054;SDS011;31788;6.954;-71.872;2022-09-14T17:21:22;9.02;;;2.47;;
46054;SDS011;31788;6.954;-71.872;2022-09-14T17:23:50;7.60;;;2.70;;
46054;SDS011;31788;6.954;-71.872;2022-09-14T17:26:18;10.25;;;2.72;;
46054;SDS011;31788;6.954;-71.872;2022-09-14T17:28:46;9.93;;;2.60;;
46054;SDS011;31788;6.954;-71.872;2022-09-14T17:31:16;7.70;;;2.40;;
46054;SDS011;31788;6.954;-71.872;2022-09-14T17:33:44;8.98;;;2.80;;
46054;SDS011;31788;6.954;-71.872;2022-09-14T17:36:11;9.18;;;2.47;;
46054;SDS011;31788;6.954;-71.872;2022-09-14T17:38:39;8.63;;;2.40;;
46054;SDS011;31788;6.954;-71.872;2022-09-14T17:41:15;8.18;;;2.55;;
46054;SDS011;31788;6.954;-71.872;2022-09-14T17:43:43;7.40;;;2.35;;
46054;SDS011;31788;6.954;-71.872;2022-09-14T17:46:14;7.53;;;2.50;;